This is the latest recevied weather packets stored in our database for station/object K0QED. If no packets are shown the sender has not sent any weather packets the latest 10 day(s).
| Time | Temp. | Humidity | Pressure | Rain* | Wind** | Luminosity | Snow |
|---|---|---|---|---|---|---|---|
| 1777654131 | 4.44° C | 71% | 1023.6 hPa | 10.16 mm | - | 1011 W/m² | - |
| 1777653829 | 5.56° C | 61% | 1023.2 hPa | 8.89 mm | - | 527 W/m² | - |
| 1777653525 | 5.56° C | 59% | 1023.5 hPa | 0 mm | - | 1097 W/m² | - |
| 1777653221 | 5° C | 68% | 1023.5 hPa | 0 mm | - | 897 W/m² | - |
| 1777652919 | 5° C | 64% | 1023.5 hPa | 0 mm | - | 167 W/m² | - |
| 1777652615 | 5° C | 68% | 1023.5 hPa | 0 mm | - | 598 W/m² | - |
| 1777652312 | 5° C | 66% | 1023.2 hPa | 0 mm | - | 541 W/m² | - |
| 1777652008 | 5° C | 72% | 1023.4 hPa | 0 mm | - | 521 W/m² | - |
| 1777651705 | 4.44° C | 73% | 1023.5 hPa | 0 mm | - | 448 W/m² | - |
| 1777651402 | 3.89° C | 72% | 1023.1 hPa | 0 mm | - | 411 W/m² | - |
| 1777651100 | 3.33° C | 71% | 1023.4 hPa | 0 mm | - | 231 W/m² | - |
| 1777650796 | 3.33° C | 80% | 1023.5 hPa | 0 mm | - | 51 W/m² | - |
| 1777650493 | 3.33° C | 82% | 1023.5 hPa | 0 mm | - | 112 W/m² | - |
| 1777650190 | 2.78° C | 85% | 1023.4 hPa | 0 mm | - | 39 W/m² | - |
| 1777649888 | 2.78° C | 89% | 1023.1 hPa | 0 mm | - | 40 W/m² | - |
| 1777649585 | 2.22° C | 92% | 1023.2 hPa | 0 mm | - | 35 W/m² | - |
| 1777649281 | 1.67° C | 95% | 1023.2 hPa | 0 mm | - | 35 W/m² | - |
| 1777648978 | 1.67° C | 97% | 1023.4 hPa | 0 mm | - | 35 W/m² | - |
| 1777648675 | 1.67° C | 97% | 1023.4 hPa | 0 mm | - | 36 W/m² | - |
| 1777648371 | 1.11° C | 98% | 1022.9 hPa | 0 mm | - | 33 W/m² | - |
| 1777648068 | 1.11° C | 99% | 1023 hPa | 0 mm | - | 33 W/m² | - |
| 1777647764 | 1.11° C | 99% | 1023.2 hPa | 0 mm | - | 55 W/m² | - |
| 1777647460 | 1.11° C | 99% | 1023.1 hPa | 0 mm | - | 39 W/m² | - |
| 1777647158 | 1.11° C | 99% | 1023.2 hPa | 0 mm | - | 43 W/m² | - |
| 1777646854 | 1.11° C | 99% | 1023 hPa | 0 mm | - | 72 W/m² | - |
* Rain latest hour (hover to see other rain measurements)
** Current wind speed in m/s (hover to see current wind gust speed)